Time;durP1;ratioP1;P1;durP2;ratioP2;P2;SDS_P1;SDS_P2;PMS_P1;PMS_P2;Temp;Humidity;BMP_temperature;BMP_pressure;BME280_temperature;BME280_humidity;BME280_pressure;Samples;Min_cycle;Max_cycle;Signal;HPM_P1;HPM_P2
2021/12/11 00:02:31;;;;;;;16.38;4.13;;;4.70;95.40;;;;;;5071072;28;20506;-70
2021/12/11 00:04:58;;;;;;;11.32;4.10;;;4.60;95.40;;;;;;5070040;28;20112;-69
2021/12/11 00:07:28;;;;;;;12.40;4.40;;;4.50;95.40;;;;;;5070152;28;20025;-70
2021/12/11 00:10:05;;;;;;;15.88;4.40;;;4.50;95.50;;;;;;5071499;28;20078;-70
2021/12/11 00:12:35;;;;;;;17.85;5.68;;;4.50;95.50;;;;;;5069379;28;20052;-69
2021/12/11 00:15:17;;;;;;;15.00;5.05;;;4.40;95.50;;;;;;5072332;28;20078;-69
2021/12/11 00:17:43;;;;;;;18.40;5.40;;;4.40;95.40;;;;;;5074058;28;20032;-69
2021/12/11 00:20:19;;;;;;;29.95;7.10;;;4.30;95.40;;;;;;5069825;28;20067;-70
2021/12/11 00:22:46;;;;;;;15.15;5.75;;;4.30;95.50;;;;;;5071342;28;20071;-70
2021/12/11 00:25:13;;;;;;;12.75;5.45;;;4.20;95.50;;;;;;5069936;28;20029;-69
2021/12/11 00:27:43;;;;;;;14.10;5.78;;;4.20;95.50;;;;;;5069333;28;20035;-69
2021/12/11 00:30:17;;;;;;;14.25;5.38;;;4.20;95.50;;;;;;5070899;28;20032;-69
2021/12/11 00:32:43;;;;;;;12.05;5.20;;;4.20;95.60;;;;;;5073133;28;20029;-70
2021/12/11 00:35:14;;;;;;;20.83;6.85;;;4.20;95.70;;;;;;5071723;28;20028;-70
2021/12/11 00:37:41;;;;;;;24.90;7.75;;;4.20;95.70;;;;;;5069541;28;20399;-69
2021/12/11 00:40:22;;;;;;;20.48;7.20;;;4.20;95.70;;;;;;5068769;28;20024;-70
2021/12/11 00:42:52;;;;;;;17.92;7.30;;;4.20;95.70;;;;;;5066657;28;20395;-70
2021/12/11 00:45:22;;;;;;;19.58;6.07;;;4.10;95.70;;;;;;5067313;28;20024;-69
2021/12/11 00:47:54;;;;;;;17.23;6.35;;;4.10;95.60;;;;;;5069310;28;20032;-69
2021/12/11 00:50:27;;;;;;;15.80;6.40;;;4.10;95.70;;;;;;5072925;28;20078;-70
2021/12/11 00:52:56;;;;;;;19.85;6.90;;;4.20;95.90;;;;;;5068329;28;20029;-70
2021/12/11 00:55:35;;;;;;;19.02;7.00;;;4.20;96.10;;;;;;5068389;28;20095;-69
2021/12/11 00:58:11;;;;;;;20.00;6.45;;;4.20;96.10;;;;;;5076463;28;20038;-70
2021/12/11 01:00:52;;;;;;;15.02;5.30;;;4.30;96.20;;;;;;5069104;28;20105;-69
2021/12/11 01:03:30;;;;;;;15.23;5.28;;;4.30;96.20;;;;;;5069744;28;20538;-69
2021/12/11 01:06:00;;;;;;;13.77;5.05;;;4.30;96.10;;;;;;5068738;28;20074;-69
2021/12/11 01:08:32;;;;;;;14.88;5.10;;;4.30;96.10;;;;;;5075500;28;20048;-69
2021/12/11 01:11:09;;;;;;;15.48;5.32;;;4.30;96.00;;;;;;5068403;28;20041;-69
2021/12/11 01:13:42;;;;;;;19.27;5.55;;;4.20;95.90;;;;;;5068472;28;20035;-69
2021/12/11 01:16:13;;;;;;;13.63;4.97;;;4.20;95.90;;;;;;5068647;28;20090;-69
2021/12/11 01:18:41;;;;;;;;;;;4.20;96.00;;;;;;5069610;28;20036;-69
2021/12/11 01:21:30;;;;;;;16.35;4.57;;;4.30;96.10;;;;;;5070354;28;20339;-69
2021/12/11 01:26:35;;;;;;;16.27;5.05;;;4.20;96.10;;;;;;5071215;28;20063;-69
2021/12/11 01:29:01;;;;;;;17.83;5.32;;;4.20;96.10;;;;;;5068485;28;20036;-69
2021/12/11 01:31:28;;;;;;;21.52;5.50;;;4.20;96.00;;;;;;5068458;28;20029;-69
2021/12/11 01:33:55;;;;;;;14.85;4.97;;;4.20;96.00;;;;;;5068213;28;20033;-69
2021/12/11 01:36:22;;;;;;;15.60;4.93;;;4.20;96.10;;;;;;5068347;28;20434;-69
2021/12/11 01:38:57;;;;;;;17.77;4.93;;;4.20;96.10;;;;;;5072569;28;20031;-70
2021/12/11 01:41:24;;;;;;;14.00;4.82;;;4.10;96.00;;;;;;5071867;28;20028;-70
2021/12/11 01:43:53;;;;;;;10.13;4.72;;;4.10;95.90;;;;;;5067941;28;20064;-69
2021/12/11 01:46:21;;;;;;;11.73;4.43;;;4.10;95.90;;;;;;5069131;28;20035;-69
2021/12/11 01:48:50;;;;;;;16.25;6.15;;;4.10;95.90;;;;;;5068715;28;20032;-69
2021/12/11 01:51:28;;;;;;;21.90;5.65;;;4.00;95.90;;;;;;5068631;28;20040;-69
2021/12/11 01:54:05;;;;;;;14.07;5.35;;;4.10;96.10;;;;;;5067481;28;20036;-70
2021/12/11 01:56:32;;;;;;;14.82;5.47;;;4.10;96.10;;;;;;5070169;28;20052;-70
2021/12/11 01:59:08;;;;;;;17.10;5.38;;;4.10;96.10;;;;;;5068214;28;20052;-69
2021/12/11 02:01:38;;;;;;;21.27;5.15;;;4.10;96.10;;;;;;5067683;28;20012;-69
2021/12/11 02:04:08;;;;;;;17.35;5.22;;;4.10;96.10;;;;;;5069503;28;20033;-70
2021/12/11 02:06:39;;;;;;;17.17;5.13;;;4.10;96.10;;;;;;5067199;28;20036;-70
2021/12/11 02:09:20;;;;;;;18.52;5.25;;;4.10;96.00;;;;;;5069363;28;20032;-70
2021/12/11 02:11:52;;;;;;;13.80;5.00;;;4.00;95.90;;;;;;5067266;28;20109;-69
2021/12/11 02:14:25;;;;;;;12.75;5.25;;;4.00;95.90;;;;;;5068306;28;20025;-69
2021/12/11 02:16:53;;;;;;;17.55;7.07;;;4.10;96.10;;;;;;5069449;28;20025;-69
2021/12/11 02:19:31;;;;;;;12.27;5.03;;;4.10;96.30;;;;;;5069877;28;20021;-70
2021/12/11 02:22:06;;;;;;;12.70;5.45;;;4.20;96.40;;;;;;5066624;28;20715;-69
2021/12/11 02:24:35;;;;;;;14.70;5.45;;;4.30;96.50;;;;;;5066999;28;20424;-69
2021/12/11 02:27:08;;;;;;;14.70;5.50;;;4.30;96.60;;;;;;5069493;28;20036;-68
2021/12/11 02:29:40;;;;;;;21.70;9.05;;;4.40;96.70;;;;;;5069580;28;20483;-69
2021/12/11 02:32:29;;;;;;;17.25;6.70;;;4.50;96.70;;;;;;5068561;28;20024;-69
2021/12/11 02:35:03;;;;;;;15.43;6.28;;;4.50;96.70;;;;;;5067010;28;20067;-69
2021/12/11 02:37:38;;;;;;;15.50;5.80;;;4.60;96.70;;;;;;5068901;28;20480;-69
2021/12/11 02:40:27;;;;;;;16.20;5.28;;;4.60;96.80;;;;;;5068494;28;20066;-69
2021/12/11 02:43:19;;;;;;;14.13;5.45;;;4.70;96.90;;;;;;5068525;28;20090;-69
2021/12/11 02:46:01;;;;;;;18.33;5.57;;;4.80;97.00;;;;;;5066784;28;20107;-69
2021/12/11 02:48:56;;;;;;;23.80;5.22;;;4.90;97.00;;;;;;5063956;28;20071;-68
2021/12/11 02:51:37;;;;;;;18.77;5.28;;;5.00;97.00;;;;;;5063912;28;20036;-69
2021/12/11 02:54:19;;;;;;;21.60;5.60;;;5.00;97.10;;;;;;5069002;28;20028;-69
2021/12/11 02:56:54;;;;;;;20.45;5.50;;;5.10;97.00;;;;;;5071128;28;20441;-69
2021/12/11 02:59:25;;;;;;;18.52;5.80;;;5.10;97.00;;;;;;5067805;28;20108;-69
2021/12/11 03:02:16;;;;;;;27.30;6.35;;;5.10;97.00;;;;;;5071614;28;20693;-69
2021/12/11 03:04:49;;;;;;;;;;;5.10;96.90;;;;;;5064184;28;20515;-69
2021/12/11 03:07:17;;;;;;;20.98;5.03;;;5.10;96.80;;;;;;5067212;28;19912;-69
2021/12/11 03:09:50;;;;;;;21.00;5.60;;;5.00;96.80;;;;;;5066206;28;20454;-69
2021/12/11 03:12:17;;;;;;;12.70;4.78;;;5.00;96.90;;;;;;5066526;28;20052;-69
2021/12/11 03:14:45;;;;;;;14.80;4.53;;;5.00;96.80;;;;;;5069285;28;20070;-69
2021/12/11 03:17:13;;;;;;;16.27;4.72;;;4.90;96.80;;;;;;5066138;28;20036;-69
2021/12/11 03:19:41;;;;;;;24.45;5.30;;;4.90;96.80;;;;;;5065774;28;20017;-69
2021/12/11 03:22:11;;;;;;;20.67;5.60;;;4.90;96.80;;;;;;5066402;28;20043;-69
2021/12/11 03:24:37;;;;;;;22.33;4.95;;;4.90;96.80;;;;;;5067944;28;20055;-69
2021/12/11 03:27:03;;;;;;;17.88;4.57;;;4.90;97.20;;;;;;5068738;28;20060;-69
2021/12/11 03:29:29;;;;;;;16.08;4.63;;;5.00;96.90;;;;;;5068289;28;20507;-69
2021/12/11 03:31:56;;;;;;;22.45;5.32;;;5.00;96.90;;;;;;5066644;28;20058;-69
2021/12/11 03:34:25;;;;;;;23.05;5.78;;;5.00;96.90;;;;;;5066527;28;20027;-69
2021/12/11 03:36:52;;;;;;;21.48;4.78;;;5.10;97.00;;;;;;5066400;28;20024;-69
2021/12/11 03:39:27;;;;;;;15.10;5.05;;;5.10;97.00;;;;;;5063332;28;20111;-69
2021/12/11 03:41:55;;;;;;;15.98;5.05;;;5.10;97.00;;;;;;5065582;28;20056;-69
2021/12/11 03:44:22;;;;;;;24.38;6.38;;;5.20;97.00;;;;;;5071250;28;20036;-69
2021/12/11 03:46:52;;;;;;;18.80;4.97;;;5.20;97.00;;;;;;5066391;28;20544;-69
2021/12/11 03:49:22;;;;;;;20.10;4.95;;;5.20;97.00;;;;;;5066061;28;20048;-69
2021/12/11 03:51:50;;;;;;;20.30;5.57;;;5.20;96.90;;;;;;5065433;28;20074;-69
2021/12/11 03:54:21;;;;;;;15.93;5.32;;;5.20;96.90;;;;;;5067203;28;20311;-69
2021/12/11 03:56:47;;;;;;;21.40;5.90;;;5.20;96.90;;;;;;5068436;28;20064;-69
2021/12/11 03:59:14;;;;;;;19.13;5.68;;;5.20;96.90;;;;;;5065989;28;20079;-69
2021/12/11 04:01:49;;;;;;;27.85;5.70;;;5.30;96.90;;;;;;5066768;28;20441;-69
2021/12/11 04:04:21;;;;;;;20.65;5.60;;;5.30;96.90;;;;;;5065240;28;20119;-69
2021/12/11 04:06:48;;;;;;;18.02;5.07;;;5.20;96.80;;;;;;5065502;28;20503;-69
2021/12/11 04:09:17;;;;;;;16.58;5.47;;;5.20;96.60;;;;;;5068014;28;20104;-69
2021/12/11 04:11:43;;;;;;;24.35;7.15;;;5.10;96.40;;;;;;5069798;28;20127;-69
2021/12/11 04:14:14;;;;;;;18.60;5.70;;;5.00;96.30;;;;;;5065979;28;20104;-69
2021/12/11 04:16:40;;;;;;;18.13;5.57;;;4.90;96.30;;;;;;5065200;28;20056;-69
2021/12/11 04:19:08;;;;;;;21.13;6.63;;;4.90;96.30;;;;;;5065310;28;20033;-69
2021/12/11 04:21:34;;;;;;;26.92;6.68;;;4.90;96.40;;;;;;5065962;28;20154;-69
2021/12/11 04:24:02;;;;;;;18.38;5.93;;;4.90;96.50;;;;;;5067566;28;20090;-69
2021/12/11 04:26:28;;;;;;;16.77;4.95;;;4.90;96.60;;;;;;5070505;28;20431;-69
2021/12/11 04:28:54;;;;;;;20.08;5.93;;;4.80;97.00;;;;;;5069250;28;20035;-69
2021/12/11 04:31:24;;;;;;;17.58;5.60;;;4.80;96.60;;;;;;5069397;28;20478;-69
2021/12/11 04:33:53;;;;;;;17.00;5.28;;;4.80;96.60;;;;;;5069302;28;20032;-69
2021/12/11 04:36:24;;;;;;;23.55;5.93;;;4.90;96.70;;;;;;5065794;28;20029;-69
2021/12/11 04:38:51;;;;;;;19.02;6.22;;;4.80;96.60;;;;;;5072924;28;20056;-69
2021/12/11 04:41:24;;;;;;;18.10;5.75;;;4.80;96.70;;;;;;5071129;28;20129;-70
2021/12/11 04:43:52;;;;;;;23.40;6.50;;;4.80;96.70;;;;;;5068729;28;20036;-70
2021/12/11 04:46:18;;;;;;;18.67;5.78;;;4.80;96.60;;;;;;5069327;28;20020;-69
2021/12/11 04:51:29;;;;;;;15.32;5.32;;;4.60;96.40;;;;;;5069970;28;20025;-69
2021/12/11 05:10:03;;;;;;;16.00;6.03;;;4.60;96.80;;;;;;4991911;28;20046;-69
2021/12/11 05:14:56;;;;;;;15.27;6.05;;;4.60;96.80;;;;;;4992117;28;20035;-69
2021/12/11 05:17:23;;;;;;;14.95;5.63;;;4.70;96.90;;;;;;4994309;28;20073;-69
2021/12/11 05:19:49;;;;;;;18.48;6.10;;;4.70;96.90;;;;;;4996286;28;20557;-70
2021/12/11 05:22:16;;;;;;;15.70;5.57;;;4.70;96.90;;;;;;4994968;28;20394;-69
2021/12/11 05:24:46;;;;;;;20.85;6.43;;;4.70;97.00;;;;;;4992523;28;20038;-69
2021/12/11 05:27:12;;;;;;;20.13;6.30;;;4.80;97.00;;;;;;4989785;28;20034;-69
2021/12/11 05:29:39;;;;;;;15.80;6.70;;;4.80;97.00;;;;;;4991129;28;20031;-69
2021/12/11 05:32:10;;;;;;;15.95;6.38;;;4.80;97.00;;;;;;4993339;28;20034;-70
2021/12/11 05:34:36;;;;;;;19.73;6.40;;;4.80;96.90;;;;;;4992689;28;20038;-70
2021/12/11 05:37:03;;;;;;;18.08;5.88;;;4.80;96.80;;;;;;4990782;28;20481;-70
2021/12/11 05:39:29;;;;;;;25.15;5.97;;;4.70;96.70;;;;;;4991562;28;20041;-69
2021/12/11 05:41:55;;;;;;;20.20;6.15;;;4.70;96.70;;;;;;4991242;28;20026;-70
2021/12/11 05:44:22;;;;;;;16.80;6.00;;;4.70;96.70;;;;;;4992157;28;20056;-70
2021/12/11 05:46:49;;;;;;;21.27;6.40;;;4.60;96.70;;;;;;5027847;28;20036;-70
2021/12/11 05:49:15;;;;;;;17.38;6.22;;;4.70;96.80;;;;;;5068883;28;20107;-70
2021/12/11 05:51:45;;;;;;;15.77;5.97;;;4.70;96.80;;;;;;5068064;28;20075;-69
2021/12/11 05:54:18;;;;;;;18.50;6.68;;;4.70;96.90;;;;;;5072059;28;20040;-70
2021/12/11 05:56:44;;;;;;;16.58;6.00;;;4.80;97.00;;;;;;5072563;28;20020;-69
2021/12/11 05:59:14;;;;;;;21.00;6.88;;;4.80;97.00;;;;;;5067203;28;20529;-69
2021/12/11 06:01:59;;;;;;;22.67;12.93;;;4.90;97.10;;;;;;5069798;28;20020;-69
2021/12/11 06:04:32;;;;;;;18.05;7.28;;;4.90;97.10;;;;;;5068442;28;20553;-69
2021/12/11 06:07:00;;;;;;;17.95;6.43;;;4.90;97.00;;;;;;5067626;28;20514;-69
2021/12/11 06:09:27;;;;;;;17.88;5.80;;;5.00;97.10;;;;;;5067266;28;20078;-69
2021/12/11 06:11:57;;;;;;;16.30;6.22;;;5.00;97.00;;;;;;5070171;28;20040;-69
2021/12/11 06:14:23;;;;;;;15.48;5.95;;;5.00;97.00;;;;;;5070369;28;20131;-69
2021/12/11 06:16:51;;;;;;;20.33;6.90;;;5.00;96.90;;;;;;5070160;28;20043;-69
2021/12/11 06:19:21;;;;;;;15.88;6.60;;;5.00;96.90;;;;;;5067859;28;20081;-69
2021/12/11 06:21:48;;;;;;;13.25;5.88;;;5.00;96.90;;;;;;5067146;28;20031;-69
2021/12/11 06:24:14;;;;;;;16.90;6.60;;;5.00;96.90;;;;;;5067812;28;20086;-69
2021/12/11 06:26:41;;;;;;;19.15;6.22;;;5.00;96.90;;;;;;5070625;28;20024;-69
2021/12/11 06:29:07;;;;;;;19.27;6.72;;;5.00;96.80;;;;;;5066065;28;20033;-69
2021/12/11 06:31:33;;;;;;;16.02;6.18;;;5.00;96.80;;;;;;5068066;28;20028;-69
2021/12/11 06:33:59;;;;;;;18.63;6.90;;;5.00;96.80;;;;;;5066585;28;20032;-68
2021/12/11 06:36:26;;;;;;;19.45;7.50;;;5.00;96.80;;;;;;5067161;28;20516;-68
2021/12/11 06:38:56;;;;;;;19.25;8.27;;;5.00;96.80;;;;;;5070455;28;20021;-68
2021/12/11 06:41:25;;;;;;;18.08;7.70;;;5.00;96.80;;;;;;5069765;28;20032;-68
2021/12/11 06:43:51;;;;;;;18.13;6.95;;;5.00;96.80;;;;;;5066336;28;20040;-68
2021/12/11 06:46:18;;;;;;;21.52;6.53;;;5.00;96.80;;;;;;5066717;28;20016;-69
2021/12/11 06:48:44;;;;;;;26.25;6.38;;;5.00;96.80;;;;;;5064380;28;20028;-69
2021/12/11 06:51:10;;;;;;;21.45;7.10;;;4.90;96.70;;;;;;5067750;28;20093;-69
2021/12/11 06:53:42;;;;;;;17.95;6.93;;;4.90;96.70;;;;;;5070687;28;20078;-69
2021/12/11 06:56:11;;;;;;;26.83;7.82;;;4.90;96.70;;;;;;5067938;28;20059;-69
2021/12/11 06:58:37;;;;;;;20.77;7.85;;;5.00;96.80;;;;;;5066186;28;20036;-69
2021/12/11 07:01:06;;;;;;;18.30;6.93;;;5.00;96.80;;;;;;5060674;28;20029;-69
2021/12/11 07:03:33;;;;;;;18.08;7.35;;;5.00;96.90;;;;;;5062957;28;20040;-69
2021/12/11 07:05:59;;;;;;;19.15;7.68;;;5.00;96.90;;;;;;5067280;28;20056;-69
2021/12/11 07:08:26;;;;;;;18.52;7.35;;;5.10;96.90;;;;;;5069896;28;20032;-68
2021/12/11 07:10:53;;;;;;;20.98;7.40;;;5.10;96.90;;;;;;5067972;28;20412;-69
2021/12/11 07:13:18;;;;;;;19.00;7.72;;;5.10;96.90;;;;;;5066112;28;20060;-69
2021/12/11 07:15:45;;;;;;;24.17;8.68;;;5.10;96.90;;;;;;5068254;28;20118;-68
2021/12/11 07:18:11;;;;;;;18.02;7.93;;;5.10;96.90;;;;;;5071525;28;20056;-69
2021/12/11 07:20:37;;;;;;;18.58;8.35;;;5.10;96.90;;;;;;5070278;28;20391;-69
2021/12/11 07:23:04;;;;;;;16.00;8.00;;;5.20;96.90;;;;;;5068436;28;20182;-69
2021/12/11 07:25:39;;;;;;;45.35;10.98;;;5.10;96.90;;;;;;5066979;28;20067;-69
2021/12/11 07:28:08;;;;;;;17.48;7.53;;;5.20;96.90;;;;;;5065648;28;20479;-69
2021/12/11 07:30:37;;;;;;;18.23;7.50;;;5.20;96.80;;;;;;5066803;28;20021;-69
2021/12/11 07:33:04;;;;;;;18.98;6.75;;;5.10;96.80;;;;;;5068837;28;20028;-69
2021/12/11 07:35:32;;;;;;;13.57;6.43;;;5.10;96.70;;;;;;5068558;28;20024;-69
2021/12/11 07:38:00;;;;;;;18.98;7.00;;;5.10;96.70;;;;;;5066049;28;20025;-69
2021/12/11 07:40:29;;;;;;;19.02;6.78;;;5.10;96.70;;;;;;5066365;28;20020;-68
2021/12/11 07:42:55;;;;;;;18.92;7.72;;;5.00;96.70;;;;;;5066074;28;20032;-69
2021/12/11 07:45:23;;;;;;;16.98;7.32;;;5.00;96.70;;;;;;5066576;28;20021;-69
2021/12/11 07:47:49;;;;;;;21.55;7.72;;;5.00;96.70;;;;;;5066695;28;20024;-68
2021/12/11 07:50:15;;;;;;;20.73;7.43;;;5.00;96.70;;;;;;5066589;28;20025;-68
2021/12/11 07:52:41;;;;;;;14.57;7.53;;;5.10;96.80;;;;;;5067580;28;20033;-69
2021/12/11 07:55:09;;;;;;;17.23;7.28;;;5.10;96.80;;;;;;5068839;28;20564;-68
2021/12/11 07:57:36;;;;;;;18.67;6.95;;;5.10;96.70;;;;;;5066381;28;20066;-72
2021/12/11 08:00:08;;;;;;;14.32;7.05;;;5.10;96.70;;;;;;5067730;28;20028;-73
2021/12/11 08:02:34;;;;;;;14.30;6.60;;;5.10;96.70;;;;;;5071260;28;20044;-69
2021/12/11 08:05:00;;;;;;;18.30;7.10;;;5.10;96.60;;;;;;5071468;28;20371;-69
2021/12/11 08:07:26;;;;;;;18.40;6.90;;;5.10;96.60;;;;;;5069977;28;20024;-70
2021/12/11 08:09:52;;;;;;;13.63;6.80;;;5.20;96.60;;;;;;5067049;28;20029;-69
2021/12/11 08:12:18;;;;;;;19.88;7.63;;;5.20;96.60;;;;;;5070940;28;20052;-70
2021/12/11 08:14:44;;;;;;;62.15;20.83;;;5.20;96.50;;;;;;5069428;28;20384;-69
2021/12/11 08:17:10;;;;;;;152.60;45.65;;;5.30;96.20;;;;;;5070664;28;20475;-70
2021/12/11 08:19:36;;;;;;;25.63;11.60;;;5.30;96.00;;;;;;5066759;28;20021;-70
2021/12/11 08:22:05;;;;;;;26.10;11.55;;;5.30;95.80;;;;;;5061020;28;20519;-70
2021/12/11 08:24:31;;;;;;;24.85;11.65;;;5.40;95.70;;;;;;5070502;28;20514;-70
2021/12/11 08:27:00;;;;;;;24.88;11.98;;;5.50;95.70;;;;;;5072215;28;20032;-70
2021/12/11 08:29:26;;;;;;;31.40;11.85;;;5.60;95.60;;;;;;5067901;28;20036;-71
2021/12/11 08:31:54;;;;;;;30.30;11.52;;;5.60;95.50;;;;;;5071005;28;20024;-71
2021/12/11 08:34:20;;;;;;;29.20;10.65;;;5.70;95.50;;;;;;5066733;28;20021;-70
2021/12/11 08:36:47;;;;;;;25.85;9.25;;;5.80;95.50;;;;;;5067917;28;20028;-70
2021/12/11 08:39:16;;;;;;;21.02;9.38;;;5.90;95.50;;;;;;5070220;28;20032;-73
2021/12/11 08:41:44;;;;;;;22.15;9.77;;;5.90;95.40;;;;;;5068658;28;20075;-69
2021/12/11 08:44:13;;;;;;;19.42;9.40;;;6.00;95.30;;;;;;5066484;28;20399;-70
2021/12/11 08:46:43;;;;;;;22.25;9.52;;;6.00;95.30;;;;;;5068936;28;20021;-71
2021/12/11 08:49:12;;;;;;;27.73;9.75;;;6.10;95.20;;;;;;5069288;28;20032;-71
2021/12/11 08:51:55;;;;;;;26.65;9.30;;;6.10;95.00;;;;;;5068713;28;20008;-71
2021/12/11 08:54:25;;;;;;;29.58;9.75;;;6.20;95.00;;;;;;5057702;28;20031;-72
2021/12/11 08:56:51;;;;;;;21.92;9.93;;;6.20;94.90;;;;;;5068741;28;20016;-71
2021/12/11 08:59:21;;;;;;;19.73;9.05;;;6.30;94.90;;;;;;5066584;28;20869;-72
2021/12/11 09:01:57;;;;;;;21.73;9.15;;;6.40;94.90;;;;;;5071173;28;20520;-71
2021/12/11 09:04:50;;;;;;;20.98;8.32;;;6.40;94.90;;;;;;5065227;28;20029;-70
2021/12/11 09:07:36;;;;;;;23.20;9.00;;;6.60;94.90;;;;;;5069402;28;20048;-71
2021/12/11 09:10:05;;;;;;;24.98;8.52;;;6.70;94.80;;;;;;5055954;28;20025;-71
2021/12/11 09:12:48;;;;;;;20.75;6.63;;;6.70;94.90;;;;;;5068152;28;20044;-70
2021/12/11 09:15:18;;;;;;;18.83;6.63;;;6.80;94.90;;;;;;5071573;28;20088;-71
2021/12/11 09:17:59;;;;;;;20.92;5.93;;;6.90;94.80;;;;;;5061143;28;20031;-70
2021/12/11 09:20:36;;;;;;;26.20;7.10;;;7.00;94.70;;;;;;5063210;28;20032;-71
2021/12/11 09:23:33;;;;;;;19.35;5.15;;;7.10;94.60;;;;;;5069203;28;20086;-70
2021/12/11 09:26:03;;;;;;;21.98;5.85;;;7.10;94.40;;;;;;5065728;28;20071;-73
2021/12/11 09:28:34;;;;;;;22.83;6.07;;;7.20;94.40;;;;;;5066007;28;20020;-72
2021/12/11 09:31:03;;;;;;;19.55;5.72;;;7.30;94.30;;;;;;5071502;28;20082;-72
2021/12/11 09:33:34;;;;;;;19.85;4.30;;;7.40;94.30;;;;;;5064078;28;20020;-72
2021/12/11 09:36:15;;;;;;;21.40;4.90;;;7.40;93.80;;;;;;5063737;28;20043;-70
2021/12/11 09:38:51;;;;;;;21.15;4.88;;;7.50;93.60;;;;;;5069800;28;20024;-70
2021/12/11 09:41:19;;;;;;;20.27;4.68;;;7.60;93.60;;;;;;5069787;28;20526;-70
2021/12/11 09:43:59;;;;;;;16.23;4.53;;;7.60;93.50;;;;;;5063670;28;20036;-72
2021/12/11 09:46:34;;;;;;;19.15;4.00;;;7.70;93.40;;;;;;5066920;28;20048;-71
2021/12/11 09:49:03;;;;;;;22.50;4.50;;;7.80;93.20;;;;;;5067182;28;20051;-69
2021/12/11 09:51:34;;;;;;;19.35;4.25;;;7.90;93.10;;;;;;5068771;28;20090;-70
2021/12/11 09:54:08;;;;;;;19.35;4.90;;;7.90;93.00;;;;;;5064830;28;20523;-70
2021/12/11 09:57:03;;;;;;;20.85;4.30;;;8.00;92.80;;;;;;5075743;28;20032;-70
2021/12/11 09:59:31;;;;;;;20.55;4.32;;;8.10;92.60;;;;;;5055548;28;20132;-70
2021/12/11 10:02:03;;;;;;;20.17;4.70;;;8.20;92.60;;;;;;5068579;28;20060;-70
2021/12/11 10:04:37;;;;;;;23.33;4.32;;;8.30;92.40;;;;;;5059737;28;20033;-70
2021/12/11 10:09:45;;;;;;;17.73;4.05;;;8.90;92.10;;;;;;5066435;28;20506;-70
2021/12/11 10:12:18;;;;;;;19.13;4.28;;;9.20;91.90;;;;;;5064338;28;20515;-70
2021/12/11 10:14:53;;;;;;;20.70;3.83;;;9.20;91.20;;;;;;5068748;28;20552;-70
2021/12/11 10:17:26;;;;;;;17.45;4.53;;;9.30;91.00;;;;;;5064676;28;20032;-70
2021/12/11 10:19:55;;;;;;;19.15;4.45;;;9.50;90.30;;;;;;5066315;28;20032;-70
2021/12/11 10:22:28;;;;;;;24.30;4.25;;;9.60;90.30;;;;;;5063170;28;20147;-69
2021/12/11 10:24:54;;;;;;;17.25;3.70;;;9.70;90.20;;;;;;5057277;28;20029;-70
2021/12/11 10:27:25;;;;;;;15.88;4.47;;;9.60;88.50;;;;;;5053052;28;20028;-70
2021/12/11 10:29:52;;;;;;;18.38;4.03;;;9.60;89.50;;;;;;5066764;28;20020;-70
2021/12/11 10:32:23;;;;;;;18.60;3.60;;;9.50;90.20;;;;;;5065276;28;20059;-69
2021/12/11 10:34:56;;;;;;;17.30;4.65;;;9.50;90.40;;;;;;5064401;28;20067;-68
2021/12/11 10:37:32;;;;;;;22.02;4.82;;;9.50;90.30;;;;;;5068170;28;20040;-71
2021/12/11 10:40:04;;;;;;;18.15;5.13;;;9.60;90.10;;;;;;5067773;28;20074;-69
2021/12/11 10:42:30;;;;;;;22.75;5.60;;;9.80;89.90;;;;;;5067988;28;20061;-68
2021/12/11 10:44:58;;;;;;;23.80;5.45;;;10.10;90.00;;;;;;5067959;28;20029;-69
2021/12/11 10:47:36;;;;;;;25.23;5.75;;;10.10;89.90;;;;;;5065198;28;20487;-68
2021/12/11 10:50:06;;;;;;;18.63;5.00;;;10.10;90.20;;;;;;5048922;28;20399;-69
2021/12/11 10:52:32;;;;;;;21.95;5.75;;;10.10;90.30;;;;;;5061609;28;20499;-69
2021/12/11 10:55:02;;;;;;;25.92;6.57;;;10.30;90.50;;;;;;5065593;28;20036;-68
2021/12/11 10:57:29;;;;;;;24.93;5.80;;;10.30;90.50;;;;;;5066576;28;20029;-68
2021/12/11 10:59:57;;;;;;;20.00;5.78;;;10.40;90.40;;;;;;5068491;28;20028;-69
2021/12/11 11:02:31;;;;;;;21.95;5.05;;;10.60;90.00;;;;;;5067263;28;20102;-69
2021/12/11 11:05:09;;;;;;;19.58;5.07;;;10.70;90.00;;;;;;5066136;28;20051;-68
2021/12/11 11:07:36;;;;;;;18.02;4.68;;;10.70;89.80;;;;;;5066967;28;20028;-69
2021/12/11 11:10:08;;;;;;;24.27;5.65;;;10.70;90.10;;;;;;5068240;28;20029;-69
2021/12/11 11:12:34;;;;;;;17.52;5.70;;;10.70;90.60;;;;;;5049360;28;20491;-70
2021/12/11 11:15:00;;;;;;;26.40;6.38;;;10.70;90.30;;;;;;5049258;28;20056;-70
2021/12/11 11:17:30;;;;;;;22.42;6.15;;;10.80;90.40;;;;;;5046493;28;20021;-70
2021/12/11 11:19:57;;;;;;;28.52;7.07;;;10.80;90.00;;;;;;5047321;28;20581;-69
2021/12/11 11:22:29;;;;;;;20.77;6.03;;;10.80;89.80;;;;;;5047554;28;20032;-69
2021/12/11 11:25:06;;;;;;;19.95;5.32;;;10.80;89.70;;;;;;5051192;28;20404;-70
2021/12/11 11:27:32;;;;;;;21.02;5.65;;;10.80;90.20;;;;;;5047343;28;20388;-69
2021/12/11 11:29:58;;;;;;;18.48;5.55;;;10.80;90.50;;;;;;5046823;28;20044;-69
2021/12/11 11:32:32;;;;;;;22.17;6.45;;;11.00;90.30;;;;;;5049054;28;20408;-69
2021/12/11 11:35:12;;;;;;;22.15;6.78;;;10.90;89.00;;;;;;5047191;28;20021;-71
2021/12/11 11:37:39;;;;;;;20.02;6.22;;;10.90;89.70;;;;;;5040183;28;20108;-71
2021/12/11 11:40:11;;;;;;;22.52;6.38;;;10.90;89.60;;;;;;5044440;28;20055;-70
2021/12/11 11:42:38;;;;;;;25.38;5.85;;;10.90;90.00;;;;;;5046141;28;20159;-72
2021/12/11 11:45:08;;;;;;;20.55;4.50;;;10.90;90.30;;;;;;5043915;28;20107;-72
2021/12/11 11:47:34;;;;;;;20.90;5.28;;;10.80;90.00;;;;;;5046254;28;20021;-71
2021/12/11 11:50:02;;;;;;;21.52;4.40;;;10.90;88.50;;;;;;5046516;28;20029;-71
2021/12/11 11:52:29;;;;;;;15.57;4.50;;;10.90;89.60;;;;;;5044021;28;20021;-70
2021/12/11 11:55:05;;;;;;;21.70;4.63;;;10.80;90.10;;;;;;5046384;28;20036;-72
2021/12/11 11:57:36;;;;;;;23.13;4.63;;;10.80;90.40;;;;;;5043011;28;20511;-72
2021/12/11 12:00:14;;;;;;;19.25;4.53;;;10.80;90.50;;;;;;5044253;28;20036;-71
2021/12/11 12:02:40;;;;;;;19.05;4.55;;;10.90;90.60;;;;;;5048103;28;20041;-73
2021/12/11 12:05:07;;;;;;;22.25;4.78;;;10.90;90.80;;;;;;5037874;28;20552;-73
2021/12/11 12:07:34;;;;;;;18.48;4.25;;;10.90;90.80;;;;;;5037077;28;20025;-73
2021/12/11 12:10:06;;;;;;;22.73;4.85;;;10.90;90.90;;;;;;5034702;28;20017;-72
2021/12/11 12:12:33;;;;;;;19.88;4.55;;;11.00;91.00;;;;;;5047526;28;20036;-71
2021/12/11 12:14:59;;;;;;;19.55;4.18;;;11.10;91.40;;;;;;5047701;28;20040;-70
2021/12/11 12:17:30;;;;;;;23.48;4.82;;;11.20;90.80;;;;;;5047605;28;20507;-71
2021/12/11 12:19:56;;;;;;;;;;;11.20;90.40;;;;;;5045536;28;20036;-71
2021/12/11 12:22:24;;;;;;;18.92;3.83;;;11.20;89.70;;;;;;5047361;28;20047;-70
2021/12/11 12:24:52;;;;;;;20.63;4.07;;;11.30;90.00;;;;;;5044678;28;20570;-71
2021/12/11 12:27:21;;;;;;;25.60;4.35;;;11.30;90.30;;;;;;5047766;28;20037;-72
2021/12/11 12:29:51;;;;;;;20.95;4.00;;;11.30;90.10;;;;;;5054648;28;20514;-73
2021/12/11 12:32:23;;;;;;;15.45;3.25;;;11.20;89.00;;;;;;5045832;28;20029;-71
2021/12/11 12:34:52;;;;;;;15.48;3.67;;;11.20;87.40;;;;;;5042094;28;20068;-70
2021/12/11 12:37:18;;;;;;;20.10;4.93;;;11.20;88.20;;;;;;5045576;28;20492;-71
2021/12/11 12:39:48;;;;;;;16.88;4.00;;;11.20;88.20;;;;;;5047496;28;20052;-70
2021/12/11 12:42:36;;;;;;;20.17;4.17;;;11.10;86.60;;;;;;5052357;28;20103;-71
2021/12/11 12:45:20;;;;;;;21.88;4.78;;;11.10;87.50;;;;;;5044819;28;20041;-71
2021/12/11 12:47:55;;;;;;;21.75;4.93;;;11.10;87.50;;;;;;5049362;28;20021;-70
2021/12/11 12:50:38;;;;;;;25.30;6.32;;;11.10;88.50;;;;;;5040114;28;20232;-70
2021/12/11 12:53:05;;;;;;;21.58;5.40;;;11.10;89.50;;;;;;5050245;28;20448;-71
2021/12/11 12:55:43;;;;;;;19.15;5.28;;;11.10;89.90;;;;;;5051081;28;20040;-71
2021/12/11 12:58:22;;;;;;;19.88;4.38;;;11.10;90.00;;;;;;5049555;28;20052;-70
2021/12/11 13:01:04;;;;;;;22.13;4.75;;;11.10;89.50;;;;;;5046474;28;20021;-70
2021/12/11 13:03:34;;;;;;;19.42;4.55;;;11.10;89.60;;;;;;5048995;28;20036;-71
2021/12/11 13:06:12;;;;;;;22.23;4.47;;;11.20;89.60;;;;;;5035637;28;20079;-70
2021/12/11 13:08:45;;;;;;;23.10;4.25;;;11.20;88.70;;;;;;5052669;28;20156;-70
2021/12/11 13:11:20;;;;;;;21.67;4.32;;;11.20;87.40;;;;;;5059817;28;20072;-70
2021/12/11 13:13:48;;;;;;;21.05;3.70;;;11.20;88.70;;;;;;5066866;28;20522;-70
2021/12/11 13:16:21;;;;;;;21.65;4.03;;;11.20;89.10;;;;;;5078986;28;20025;-71
2021/12/11 13:18:57;;;;;;;18.75;3.42;;;11.20;89.00;;;;;;5071280;28;20027;-70
2021/12/11 13:21:28;;;;;;;22.35;4.70;;;11.30;88.80;;;;;;5064002;28;20017;-71
2021/12/11 13:23:57;;;;;;;18.65;3.78;;;11.30;89.50;;;;;;5069488;28;20039;-71
2021/12/11 13:26:25;;;;;;;20.13;3.80;;;11.40;88.90;;;;;;5064190;28;20021;-70
2021/12/11 13:28:56;;;;;;;20.42;4.22;;;11.40;88.50;;;;;;5069179;28;20033;-71
2021/12/11 13:31:29;;;;;;;17.60;3.63;;;11.40;87.80;;;;;;5065582;28;20029;-71